Aviation Digital Data Service (ADDS)

Output produced by METARs form (2121 UTC 24 May 2017)
found at http://aviationweather.gov/adds/metars/
 
KBTV 241736Z 2418/2518 VRB03KT P6SM BKN130 
     FM251300 14007KT P6SM OVC140 
     FM251600 13009G20KT P6SM VCSH OVC090